createdAt,value
2019-02-14T00:01:56.188Z,3.23
2019-02-14T00:04:22.387Z,3.13
2019-02-14T00:06:48.602Z,3.40
2019-02-14T00:09:14.768Z,3.50
2019-02-14T00:11:40.947Z,3.30
2019-02-14T00:14:07.222Z,3.30
2019-02-14T00:16:33.417Z,3.00
2019-02-14T00:18:59.606Z,3.13
2019-02-14T00:21:25.870Z,2.87
2019-02-14T00:23:52.041Z,3.07
2019-02-14T00:26:18.209Z,3.00
2019-02-14T00:28:44.407Z,3.13
2019-02-14T00:31:10.576Z,2.87
2019-02-14T00:33:36.743Z,3.40
2019-02-14T00:36:02.937Z,3.50
2019-02-14T00:38:29.133Z,2.80
2019-02-14T00:40:55.396Z,3.43
2019-02-14T00:43:21.580Z,3.77
2019-02-14T00:45:47.782Z,3.03
2019-02-14T00:48:13.950Z,3.07
2019-02-14T00:50:40.161Z,3.17
2019-02-14T00:53:06.334Z,3.00
2019-02-14T00:55:32.505Z,3.27
2019-02-14T00:57:58.683Z,2.83
2019-02-14T01:00:24.849Z,3.33
2019-02-14T01:02:50.998Z,3.07
2019-02-14T01:05:17.252Z,3.13
2019-02-14T01:07:43.425Z,3.20
2019-02-14T01:10:09.596Z,3.30
2019-02-14T01:12:35.774Z,2.90
2019-02-14T01:15:02.327Z,2.97
2019-02-14T01:17:28.533Z,3.23
2019-02-14T01:19:54.786Z,2.90
2019-02-14T01:22:20.977Z,2.60
2019-02-14T01:24:47.142Z,3.00
2019-02-14T01:27:13.346Z,2.97
2019-02-14T01:29:39.527Z,3.07
2019-02-14T01:32:05.714Z,2.70
2019-02-14T01:34:31.976Z,3.13
2019-02-14T01:36:58.170Z,3.10
2019-02-14T01:39:24.329Z,2.53
2019-02-14T01:41:50.521Z,2.40
2019-02-14T01:44:16.719Z,2.67
2019-02-14T01:46:42.895Z,2.73
2019-02-14T01:49:09.078Z,2.60
2019-02-14T01:51:35.284Z,2.90
2019-02-14T01:54:01.503Z,2.70
2019-02-14T01:56:28.276Z,2.93
2019-02-14T01:58:54.465Z,2.60
2019-02-14T02:01:20.660Z,2.23
2019-02-14T02:03:46.872Z,2.63
2019-02-14T02:06:13.052Z,2.77
2019-02-14T02:08:39.258Z,2.90
2019-02-14T02:11:05.733Z,3.07
2019-02-14T02:13:34.092Z,2.33
2019-02-14T02:16:07.255Z,2.90
2019-02-14T02:18:33.540Z,3.40
2019-02-14T02:21:08.998Z,2.83
2019-02-14T02:23:39.493Z,2.60
2019-02-14T02:26:05.721Z,2.57
2019-02-14T02:28:31.897Z,2.80
2019-02-14T02:30:58.104Z,2.30
2019-02-14T02:33:24.325Z,2.57
2019-02-14T02:35:59.935Z,2.47
2019-02-14T02:38:18.625Z,2.63
2019-02-14T02:40:50.892Z,2.37
2019-02-14T02:43:17.095Z,2.63
2019-02-14T02:45:43.349Z,2.83
2019-02-14T02:48:09.521Z,2.90
2019-02-14T02:50:36.060Z,2.63
2019-02-14T02:53:02.252Z,2.60
2019-02-14T02:55:28.438Z,2.50
2019-02-14T02:57:54.637Z,2.57
2019-02-14T03:00:20.827Z,2.57
2019-02-14T03:02:47.026Z,2.43
2019-02-14T03:05:14.339Z,2.10
2019-02-14T03:07:40.553Z,2.70
2019-02-14T03:10:11.043Z,2.30
2019-02-14T03:12:37.271Z,2.47
2019-02-14T03:15:08.164Z,2.50
2019-02-14T03:17:34.339Z,2.30
2019-02-14T03:20:00.538Z,2.70
2019-02-14T03:22:26.717Z,2.43
2019-02-14T03:24:52.915Z,2.40
2019-02-14T03:27:19.109Z,2.30
2019-02-14T03:29:45.563Z,2.43
2019-02-14T03:32:11.767Z,2.70
2019-02-14T03:34:37.942Z,2.50
2019-02-14T03:37:04.220Z,2.40
2019-02-14T03:39:30.403Z,2.33
2019-02-14T03:41:56.625Z,2.67
2019-02-14T03:44:22.790Z,2.40
2019-02-14T03:46:49.016Z,2.20
2019-02-14T03:49:15.186Z,2.40
2019-02-14T03:51:41.400Z,2.23
2019-02-14T03:54:07.872Z,2.27
2019-02-14T03:56:34.059Z,2.47
2019-02-14T03:59:00.259Z,2.23
2019-02-14T04:01:26.483Z,2.40
2019-02-14T04:03:52.637Z,2.57
2019-02-14T04:06:26.992Z,2.03
2019-02-14T04:08:46.950Z,2.47
2019-02-14T04:11:13.172Z,2.80
2019-02-14T04:13:39.330Z,2.43
2019-02-14T04:16:05.603Z,2.23
2019-02-14T04:18:31.764Z,2.13
2019-02-14T04:20:57.966Z,1.93
2019-02-14T04:23:24.134Z,2.10
2019-02-14T04:25:50.338Z,2.00
2019-02-14T04:28:16.508Z,2.23
2019-02-14T04:30:42.707Z,2.30
2019-02-14T04:33:08.871Z,2.10
2019-02-14T04:35:35.068Z,2.37
2019-02-14T04:38:01.289Z,2.50
2019-02-14T04:40:33.409Z,1.80
2019-02-14T04:42:55.625Z,2.23
2019-02-14T04:45:21.859Z,1.93
2019-02-14T04:47:48.090Z,2.00
2019-02-14T04:50:14.370Z,2.23
2019-02-14T04:52:40.595Z,2.23
2019-02-14T04:55:09.088Z,2.20
2019-02-14T04:57:35.312Z,2.33
2019-02-14T05:00:07.127Z,2.67
2019-02-14T05:02:33.303Z,2.33
2019-02-14T05:04:59.453Z,2.33
2019-02-14T05:07:45.570Z,2.17
2019-02-14T05:10:11.956Z,2.43
2019-02-14T05:12:38.624Z,2.20
2019-02-14T05:15:07.535Z,2.43
2019-02-14T05:17:33.951Z,1.97
2019-02-14T05:20:00.405Z,2.03
2019-02-14T05:22:26.691Z,2.30
2019-02-14T05:24:52.892Z,2.20
2019-02-14T05:27:19.150Z,2.20
2019-02-14T05:29:45.559Z,2.30
2019-02-14T05:32:11.900Z,2.57
2019-02-14T05:34:38.440Z,2.37
2019-02-14T05:37:04.691Z,1.90
2019-02-14T05:39:30.961Z,2.13
2019-02-14T05:41:57.154Z,1.90
2019-02-14T05:44:26.282Z,1.60
2019-02-14T05:46:52.964Z,1.90
2019-02-14T05:49:20.208Z,1.50
2019-02-14T05:51:46.380Z,1.70
2019-02-14T05:54:13.005Z,1.83
2019-02-14T05:56:39.166Z,1.27
2019-02-14T05:59:05.373Z,1.23
2019-02-14T06:01:31.563Z,1.67
2019-02-14T06:03:57.833Z,2.10
2019-02-14T06:06:24.003Z,1.47
2019-02-14T06:08:50.233Z,1.90
2019-02-14T06:11:16.430Z,1.43
2019-02-14T06:13:42.661Z,1.40
2019-02-14T06:16:08.861Z,1.80
2019-02-14T06:18:35.460Z,1.70
2019-02-14T06:21:01.807Z,1.80
2019-02-14T06:23:28.005Z,1.73
2019-02-14T06:25:54.190Z,1.63
2019-02-14T06:28:20.396Z,1.80
2019-02-14T06:30:46.791Z,1.70
2019-02-14T06:33:13.012Z,2.20
2019-02-14T06:35:39.211Z,1.63
2019-02-14T06:38:05.420Z,1.73
2019-02-14T06:40:31.647Z,2.17
2019-02-14T06:42:58.259Z,1.70
2019-02-14T06:45:24.762Z,1.90
2019-02-14T06:47:50.967Z,2.10
2019-02-14T06:50:17.460Z,1.60
2019-02-14T06:52:43.663Z,2.03
2019-02-14T06:55:09.945Z,2.10
2019-02-14T06:57:36.108Z,1.90
2019-02-14T07:00:12.544Z,2.10
2019-02-14T07:02:38.743Z,2.20
2019-02-14T07:05:07.635Z,2.20
2019-02-14T07:07:33.810Z,2.20
2019-02-14T07:10:00.057Z,2.20
2019-02-14T07:12:26.232Z,1.90
2019-02-14T07:14:57.331Z,1.70
2019-02-14T07:17:23.488Z,2.27
2019-02-14T07:19:49.768Z,2.00
2019-02-14T07:22:15.923Z,2.10
2019-02-14T07:24:42.133Z,2.00
2019-02-14T07:27:10.212Z,1.90
2019-02-14T07:29:36.431Z,1.63
2019-02-14T07:32:02.587Z,1.97
2019-02-14T07:34:28.791Z,2.10
2019-02-14T07:36:54.980Z,1.97
2019-02-14T07:39:21.169Z,1.90
2019-02-14T07:41:47.340Z,1.53
2019-02-14T07:44:13.766Z,1.57
2019-02-14T07:46:39.970Z,1.47
2019-02-14T07:49:06.170Z,1.77
2019-02-14T07:51:32.697Z,2.00
2019-02-14T07:53:58.929Z,1.80
2019-02-14T07:56:25.111Z,1.67
2019-02-14T07:58:51.324Z,1.93
2019-02-14T08:01:17.505Z,1.90
2019-02-14T08:03:43.723Z,1.70
2019-02-14T08:06:09.896Z,1.80
2019-02-14T08:08:36.101Z,1.80
2019-02-14T08:11:02.328Z,1.77
2019-02-14T08:13:28.643Z,1.77
2019-02-14T08:15:56.327Z,1.80
2019-02-14T08:18:22.641Z,1.70
2019-02-14T08:20:48.819Z,1.87
2019-02-14T08:23:15.053Z,1.70
2019-02-14T08:25:41.234Z,1.63
2019-02-14T08:28:07.415Z,1.83
2019-02-14T08:30:36.492Z,1.60
2019-02-14T08:33:06.969Z,1.53
2019-02-14T08:35:33.207Z,1.70
2019-02-14T08:37:59.376Z,1.83
2019-02-14T08:40:31.072Z,1.70
2019-02-14T08:42:58.669Z,1.70
2019-02-14T08:45:25.166Z,1.53
2019-02-14T08:47:51.331Z,2.10
2019-02-14T08:50:17.555Z,2.20
2019-02-14T08:52:44.056Z,1.97
2019-02-14T08:55:10.354Z,1.73
2019-02-14T08:57:36.534Z,1.80
2019-02-14T09:00:10.977Z,1.80
2019-02-14T09:02:37.141Z,1.93
2019-02-14T09:05:05.170Z,1.80
2019-02-14T09:07:31.473Z,1.80
2019-02-14T09:09:58.919Z,2.03
2019-02-14T09:12:25.317Z,1.70
2019-02-14T09:14:51.570Z,1.73
2019-02-14T09:17:17.893Z,1.80
2019-02-14T09:19:44.364Z,2.10
2019-02-14T09:22:10.547Z,2.13
2019-02-14T09:24:36.776Z,1.80
2019-02-14T09:27:02.945Z,1.90
2019-02-14T09:29:29.150Z,1.83
2019-02-14T09:31:55.318Z,2.00
2019-02-14T09:34:21.566Z,2.10
2019-02-14T09:36:47.726Z,2.07
2019-02-14T09:39:13.905Z,2.00
2019-02-14T09:41:40.120Z,2.13
2019-02-14T09:44:06.279Z,1.93
2019-02-14T09:46:32.528Z,2.20
2019-02-14T09:48:58.677Z,2.20
2019-02-14T09:51:24.880Z,2.33
2019-02-14T09:53:51.046Z,2.07
2019-02-14T09:56:17.245Z,2.20
2019-02-14T09:58:43.500Z,2.33
2019-02-14T10:01:09.744Z,2.23
2019-02-14T10:03:35.905Z,2.20
2019-02-14T10:06:02.106Z,2.50
2019-02-14T10:08:28.292Z,2.37
2019-02-14T10:10:54.860Z,2.50
2019-02-14T10:13:21.032Z,2.47
2019-02-14T10:15:47.259Z,2.60
2019-02-14T10:18:13.770Z,2.53
2019-02-14T10:20:39.982Z,2.80
2019-02-14T10:23:06.144Z,2.33
2019-02-14T10:25:32.361Z,2.73
2019-02-14T10:27:58.644Z,2.57
2019-02-14T10:30:24.844Z,2.13
2019-02-14T10:32:51.003Z,2.40
2019-02-14T10:35:19.531Z,2.40
2019-02-14T10:37:45.721Z,2.67
2019-02-14T10:40:17.015Z,2.33
2019-02-14T10:42:43.188Z,1.90
2019-02-14T10:45:18.726Z,1.83
2019-02-14T10:47:45.049Z,1.83
2019-02-14T10:50:11.244Z,1.53
2019-02-14T10:52:37.436Z,2.23
2019-02-14T10:55:08.333Z,1.93
2019-02-14T10:57:34.547Z,2.00
2019-02-14T11:00:00.922Z,1.83
2019-02-14T11:02:27.136Z,1.77
2019-02-14T11:04:53.595Z,1.70
2019-02-14T11:07:19.964Z,2.30
2019-02-14T11:09:46.270Z,2.10
2019-02-14T11:12:12.571Z,1.80
2019-02-14T11:14:38.735Z,1.70
2019-02-14T11:17:05.279Z,1.70
2019-02-14T11:19:31.805Z,2.00
2019-02-14T11:21:58.018Z,1.97
2019-02-14T11:24:24.242Z,1.60
2019-02-14T11:26:50.436Z,1.83
2019-02-14T11:29:16.605Z,2.03
2019-02-14T11:31:43.202Z,2.30
2019-02-14T11:34:09.373Z,1.90
2019-02-14T11:36:35.584Z,2.03
2019-02-14T11:39:04.304Z,1.90
2019-02-14T11:41:30.530Z,1.80
2019-02-14T11:43:57.037Z,1.60
2019-02-14T11:46:23.232Z,1.83
2019-02-14T11:48:49.680Z,1.97
2019-02-14T11:51:15.959Z,1.80
2019-02-14T11:53:42.124Z,2.00
2019-02-14T11:56:09.994Z,1.90
2019-02-14T11:58:36.295Z,1.77
2019-02-14T12:01:02.633Z,2.20
2019-02-14T12:03:28.883Z,2.00
2019-02-14T12:05:55.074Z,2.37
2019-02-14T12:08:21.239Z,2.00
2019-02-14T12:10:47.561Z,2.00
2019-02-14T12:13:13.751Z,2.03
2019-02-14T12:15:40.014Z,2.20
2019-02-14T12:18:06.242Z,2.37
2019-02-14T12:20:32.477Z,2.10
2019-02-14T12:22:58.644Z,1.80
2019-02-14T12:25:30.748Z,2.00
2019-02-14T12:27:56.982Z,2.17
2019-02-14T12:30:23.196Z,2.10
2019-02-14T12:32:49.717Z,2.20
2019-02-14T12:35:16.047Z,1.93
2019-02-14T12:37:42.220Z,2.90
2019-02-14T12:40:11.271Z,2.40
2019-02-14T12:42:37.441Z,2.80
2019-02-14T12:45:20.092Z,2.50
2019-02-14T12:47:39.732Z,2.03
2019-02-14T12:50:08.137Z,1.80
2019-02-14T12:52:34.314Z,2.03
2019-02-14T12:55:00.490Z,2.07
2019-02-14T12:57:26.760Z,1.87
2019-02-14T12:59:52.948Z,1.90
2019-02-14T13:02:19.550Z,1.97
2019-02-14T13:04:45.772Z,1.87
2019-02-14T13:07:23.548Z,2.50
2019-02-14T13:09:49.746Z,1.80
2019-02-14T13:12:15.976Z,2.10
2019-02-14T13:14:42.150Z,1.87
2019-02-14T13:17:08.426Z,1.70
2019-02-14T13:19:34.609Z,1.70
2019-02-14T13:22:00.803Z,1.47
2019-02-14T13:24:28.013Z,1.83
2019-02-14T13:26:55.361Z,1.60
2019-02-14T13:29:21.895Z,1.60
2019-02-14T13:31:48.111Z,2.20
2019-02-14T13:34:14.279Z,1.67
2019-02-14T13:36:40.496Z,1.93
2019-02-14T13:39:06.877Z,1.77
2019-02-14T13:41:33.125Z,1.97
2019-02-14T13:43:59.386Z,1.83
2019-02-14T13:46:25.611Z,1.80
2019-02-14T13:48:52.099Z,1.70
2019-02-14T13:51:18.450Z,1.83
2019-02-14T13:53:44.676Z,1.53
2019-02-14T13:56:10.904Z,2.03
2019-02-14T13:58:37.579Z,1.33
2019-02-14T14:01:03.783Z,1.60
2019-02-14T14:03:30.292Z,1.73
2019-02-14T14:05:56.493Z,1.67
2019-02-14T14:08:22.692Z,1.50
2019-02-14T14:10:48.950Z,1.80
2019-02-14T14:13:15.170Z,1.77
2019-02-14T14:15:41.398Z,2.03
2019-02-14T14:18:07.597Z,1.63
2019-02-14T14:20:33.790Z,1.60
2019-02-14T14:23:01.437Z,1.60
2019-02-14T14:25:27.634Z,1.93
2019-02-14T14:27:53.875Z,1.80
2019-02-14T14:30:20.105Z,1.40
2019-02-14T14:32:46.323Z,1.43
2019-02-14T14:35:12.675Z,1.70
2019-02-14T14:37:39.598Z,1.50
2019-02-14T14:40:11.000Z,1.43
2019-02-14T14:42:39.209Z,1.20
2019-02-14T14:45:10.284Z,1.07
2019-02-14T14:47:36.569Z,1.60
2019-02-14T14:50:05.981Z,1.23
2019-02-14T14:52:32.217Z,1.40
2019-02-14T14:54:58.447Z,1.10
2019-02-14T14:57:24.763Z,1.30
2019-02-14T14:59:50.898Z,1.13
2019-02-14T15:02:17.188Z,1.30
2019-02-14T15:04:43.454Z,1.10
2019-02-14T15:07:09.774Z,1.10
2019-02-14T15:09:36.244Z,1.30
2019-02-14T15:12:02.488Z,1.30
2019-02-14T15:14:28.888Z,1.10
2019-02-14T15:16:55.079Z,1.30
2019-02-14T15:19:21.286Z,1.40
2019-02-14T15:21:47.506Z,1.20
2019-02-14T15:24:13.663Z,1.00
2019-02-14T15:26:39.892Z,1.53
2019-02-14T15:29:06.176Z,1.30
2019-02-14T15:31:32.350Z,1.57
2019-02-14T15:33:58.977Z,1.63
2019-02-14T15:36:28.126Z,1.40
2019-02-14T15:38:53.315Z,1.20
2019-02-14T15:41:19.536Z,1.27
2019-02-14T15:43:45.734Z,1.30
2019-02-14T15:46:11.954Z,1.33
2019-02-14T15:48:38.190Z,1.30
2019-02-14T15:51:09.587Z,1.37
2019-02-14T15:53:36.193Z,1.40
2019-02-14T15:56:03.351Z,1.20
2019-02-14T15:58:33.064Z,1.30
2019-02-14T16:00:59.465Z,1.03
2019-02-14T16:03:25.697Z,1.47
2019-02-14T16:05:51.945Z,1.33
2019-02-14T16:08:19.619Z,1.30
2019-02-14T16:10:49.155Z,1.20
2019-02-14T16:13:15.142Z,1.40
2019-02-14T16:15:41.717Z,1.20
2019-02-14T16:18:07.940Z,1.60
2019-02-14T16:20:34.133Z,1.40
2019-02-14T16:23:00.362Z,1.80
2019-02-14T16:25:28.210Z,1.87
2019-02-14T16:27:54.645Z,1.53
2019-02-14T16:30:20.840Z,1.77
2019-02-14T16:32:47.048Z,1.83
2019-02-14T16:35:13.297Z,1.87
2019-02-14T16:37:39.455Z,1.33
2019-02-14T16:40:08.260Z,1.50
2019-02-14T16:42:34.466Z,1.77
2019-02-14T16:45:00.646Z,1.87
2019-02-14T16:47:26.852Z,2.47
2019-02-14T16:49:53.066Z,2.47
2019-02-14T16:52:19.227Z,2.53
2019-02-14T16:54:45.506Z,2.67
2019-02-14T16:57:11.806Z,2.30
2019-02-14T16:59:38.061Z,2.70
2019-02-14T17:02:04.272Z,3.90
2019-02-14T17:04:30.544Z,4.27
2019-02-14T17:06:56.707Z,3.53
2019-02-14T17:09:24.984Z,3.37
2019-02-14T17:11:53.118Z,2.57
2019-02-14T17:14:19.348Z,2.17
2019-02-14T17:16:45.808Z,2.50
2019-02-14T17:19:12.012Z,2.60
2019-02-14T17:21:38.593Z,2.03
2019-02-14T17:24:05.917Z,2.27
2019-02-14T17:26:32.122Z,2.30
2019-02-14T17:28:58.390Z,2.33
2019-02-14T17:31:24.605Z,1.90
2019-02-14T17:33:51.215Z,2.60
2019-02-14T17:36:17.399Z,2.03
2019-02-14T17:38:43.614Z,2.77
2019-02-14T17:41:09.811Z,2.30
2019-02-14T17:43:40.373Z,2.27
2019-02-14T17:46:06.929Z,2.87
2019-02-14T17:48:33.561Z,2.37
2019-02-14T17:50:59.846Z,2.63
2019-02-14T17:53:26.069Z,3.07
2019-02-14T17:55:52.261Z,3.10
2019-02-14T17:58:24.385Z,2.57
2019-02-14T18:00:50.561Z,2.77
2019-02-14T18:03:16.902Z,2.90
2019-02-14T18:05:43.061Z,2.53
2019-02-14T18:08:09.706Z,2.77
2019-02-14T18:10:36.422Z,3.17
2019-02-14T18:13:03.020Z,3.63
2019-02-14T18:15:29.537Z,3.57
2019-02-14T18:18:15.925Z,3.10
2019-02-14T18:20:43.278Z,3.00
2019-02-14T18:23:09.617Z,2.53
2019-02-14T18:25:35.767Z,2.57
2019-02-14T18:28:02.451Z,2.83
2019-02-14T18:30:28.857Z,2.53
2019-02-14T18:32:55.277Z,2.60
2019-02-14T18:35:21.620Z,2.37
2019-02-14T18:37:48.171Z,2.77
2019-02-14T18:40:14.514Z,3.27
2019-02-14T18:42:47.861Z,3.20
2019-02-14T18:45:14.109Z,2.73
2019-02-14T18:47:40.547Z,3.00
2019-02-14T18:50:11.018Z,2.90
2019-02-14T18:52:37.505Z,2.63
2019-02-14T18:55:09.563Z,2.30
2019-02-14T18:57:36.751Z,2.10
2019-02-14T19:00:15.443Z,2.70
2019-02-14T19:02:42.086Z,2.83
2019-02-14T19:05:11.440Z,3.60
2019-02-14T19:07:37.663Z,3.03
2019-02-14T19:10:14.555Z,3.33
2019-02-14T19:12:40.923Z,3.70
2019-02-14T19:15:10.490Z,4.00
2019-02-14T19:17:36.938Z,3.67
2019-02-14T19:20:07.456Z,5.27
2019-02-14T19:22:33.650Z,6.03
2019-02-14T19:24:59.837Z,5.90
2019-02-14T19:27:26.084Z,6.03
2019-02-14T19:29:52.983Z,5.17
2019-02-14T19:32:19.179Z,4.50
2019-02-14T19:34:45.429Z,4.70
2019-02-14T19:37:11.667Z,4.13
2019-02-14T19:39:37.908Z,4.57
2019-02-14T19:42:04.229Z,4.00
2019-02-14T19:44:30.555Z,2.97
2019-02-14T19:46:56.820Z,3.47
2019-02-14T19:49:23.747Z,3.97
2019-02-14T19:51:50.013Z,5.63
2019-02-14T19:54:16.240Z,4.97
2019-02-14T19:56:42.511Z,4.63
2019-02-14T19:59:11.116Z,4.23
2019-02-14T20:01:37.274Z,3.30
2019-02-14T20:04:03.506Z,3.20
2019-02-14T20:06:33.350Z,2.67
2019-02-14T20:08:59.662Z,3.13
2019-02-14T20:11:35.904Z,3.17
2019-02-14T20:13:54.043Z,3.20
2019-02-14T20:16:20.605Z,3.47
2019-02-14T20:18:47.944Z,2.90
2019-02-14T20:21:14.440Z,2.97
2019-02-14T20:23:40.773Z,3.30
2019-02-14T20:26:06.976Z,3.17
2019-02-14T20:28:33.502Z,3.37
2019-02-14T20:30:59.750Z,3.70
2019-02-14T20:33:26.134Z,3.70
2019-02-14T20:35:52.335Z,3.30
2019-02-14T20:38:18.732Z,3.53
2019-02-14T20:40:45.256Z,3.43
2019-02-14T20:43:11.552Z,3.43
2019-02-14T20:45:37.837Z,3.10
2019-02-14T20:48:04.300Z,3.80
2019-02-14T20:50:30.516Z,4.27
2019-02-14T20:52:56.842Z,3.60
2019-02-14T20:55:24.552Z,3.37
2019-02-14T20:57:51.746Z,4.00
2019-02-14T21:00:19.884Z,3.90
2019-02-14T21:02:46.162Z,4.03
2019-02-14T21:05:12.502Z,3.87
2019-02-14T21:07:38.670Z,4.03
2019-02-14T21:10:06.126Z,4.23
2019-02-14T21:12:32.345Z,5.03
2019-02-14T21:14:58.565Z,6.60
2019-02-14T21:17:24.752Z,5.30
2019-02-14T21:19:51.724Z,5.30
2019-02-14T21:22:18.868Z,4.90
2019-02-14T21:24:45.545Z,4.67
2019-02-14T21:27:11.748Z,3.70
2019-02-14T21:29:38.203Z,3.97
2019-02-14T21:32:05.280Z,5.23
2019-02-14T21:34:31.525Z,4.33
2019-02-14T21:36:57.702Z,3.90
2019-02-14T21:39:23.925Z,4.47
2019-02-14T21:41:50.204Z,4.13
2019-02-14T21:44:16.523Z,4.73
2019-02-14T21:46:45.006Z,4.33
2019-02-14T21:49:11.204Z,4.80
2019-02-14T21:51:37.397Z,4.77
2019-02-14T21:54:03.616Z,5.33
2019-02-14T21:56:29.798Z,4.60
2019-02-14T21:58:56.091Z,5.03
2019-02-14T22:01:24.311Z,4.90
2019-02-14T22:03:50.552Z,5.00
2019-02-14T22:06:16.956Z,5.00
2019-02-14T22:08:43.202Z,6.10
2019-02-14T22:11:09.393Z,5.80
2019-02-14T22:13:35.600Z,5.27
2019-02-14T22:16:01.866Z,4.97
2019-02-14T22:18:28.280Z,4.70
2019-02-14T22:20:54.537Z,5.07
2019-02-14T22:23:20.764Z,5.10
2019-02-14T22:25:47.102Z,4.80
2019-02-14T22:28:13.560Z,4.40
2019-02-14T22:30:40.898Z,4.63
2019-02-14T22:33:07.250Z,4.43
2019-02-14T22:35:33.452Z,5.00
2019-02-14T22:37:59.615Z,5.00
2019-02-14T22:40:25.880Z,6.13
2019-02-14T22:42:52.060Z,4.93
2019-02-14T22:45:18.308Z,5.33
2019-02-14T22:47:44.585Z,5.50
2019-02-14T22:50:11.926Z,5.50
2019-02-14T22:52:38.113Z,5.13
2019-02-14T22:55:11.529Z,4.60
2019-02-14T22:57:38.974Z,4.90
2019-02-14T23:00:27.054Z,4.93
2019-02-14T23:02:53.256Z,4.77
2019-02-14T23:05:19.465Z,4.50
2019-02-14T23:07:45.630Z,4.77
2019-02-14T23:10:11.868Z,5.30
2019-02-14T23:12:38.111Z,4.93
2019-02-14T23:15:06.356Z,4.53
2019-02-14T23:17:32.590Z,4.27
2019-02-14T23:19:58.803Z,5.10
2019-02-14T23:22:25.075Z,4.87
2019-02-14T23:24:51.257Z,4.13
2019-02-14T23:27:17.465Z,4.73
2019-02-14T23:29:44.144Z,5.27
2019-02-14T23:32:10.398Z,5.43
2019-02-14T23:34:36.579Z,4.97
2019-02-14T23:37:02.838Z,5.70
2019-02-14T23:39:29.012Z,4.93
2019-02-14T23:41:55.204Z,5.43
2019-02-14T23:44:21.455Z,4.93
2019-02-14T23:46:47.697Z,5.37
2019-02-14T23:49:13.860Z,5.33
2019-02-14T23:51:40.433Z,4.97
2019-02-14T23:54:06.994Z,5.03
2019-02-14T23:56:33.232Z,5.03
2019-02-14T23:58:59.387Z,5.07
